createdAt,value
2019-01-26T00:01:32.105Z,8.17
2019-01-26T00:04:02.176Z,8.70
2019-01-26T00:06:32.046Z,9.17
2019-01-26T00:09:02.186Z,7.10
2019-01-26T00:11:33.736Z,8.10
2019-01-26T00:14:04.010Z,8.30
2019-01-26T00:16:33.920Z,7.83
2019-01-26T00:19:03.722Z,8.17
2019-01-26T00:21:33.375Z,8.03
2019-01-26T00:24:03.255Z,7.53
2019-01-26T00:26:36.359Z,7.33
2019-01-26T00:29:05.035Z,7.30
2019-01-26T00:31:35.166Z,8.00
2019-01-26T00:34:05.102Z,7.13
2019-01-26T00:36:44.473Z,7.37
2019-01-26T00:39:16.831Z,7.77
2019-01-26T00:41:50.428Z,7.37
2019-01-26T00:44:20.584Z,6.53
2019-01-26T00:46:50.360Z,7.10
2019-01-26T00:49:28.182Z,7.73
2019-01-26T00:51:57.736Z,7.10
2019-01-26T00:54:27.106Z,7.37
2019-01-26T00:56:56.974Z,7.40
2019-01-26T00:59:27.578Z,7.37
2019-01-26T01:01:57.431Z,7.70
2019-01-26T01:04:27.106Z,8.27
2019-01-26T01:06:57.073Z,7.27
2019-01-26T01:09:26.962Z,7.97
2019-01-26T01:11:56.796Z,7.07
2019-01-26T01:14:26.713Z,6.80
2019-01-26T01:16:58.626Z,6.33
2019-01-26T01:19:29.204Z,6.47
2019-01-26T01:22:00.177Z,5.60
2019-01-26T01:24:30.517Z,5.57
2019-01-26T01:27:03.664Z,5.77
2019-01-26T01:29:33.953Z,6.83
2019-01-26T01:32:03.708Z,6.20
2019-01-26T01:34:33.481Z,5.13
2019-01-26T01:37:12.841Z,6.20
2019-01-26T01:39:44.793Z,6.67
2019-01-26T01:42:15.197Z,6.63
2019-01-26T01:44:47.840Z,6.00
2019-01-26T01:47:18.802Z,6.23
2019-01-26T01:49:50.902Z,6.17
2019-01-26T01:52:25.764Z,5.80
2019-01-26T01:54:59.015Z,6.30
2019-01-26T01:57:31.708Z,5.47
2019-01-26T02:00:02.438Z,5.20
2019-01-26T02:02:32.757Z,5.70
2019-01-26T02:05:03.362Z,6.13
2019-01-26T02:07:33.648Z,5.33
2019-01-26T02:10:03.656Z,5.87
2019-01-26T02:12:33.661Z,5.30
2019-01-26T02:15:05.069Z,5.53
2019-01-26T02:17:35.046Z,5.60
2019-01-26T02:20:06.064Z,6.13
2019-01-26T02:22:36.454Z,6.37
2019-01-26T02:25:08.000Z,5.57
2019-01-26T02:27:45.165Z,5.87
2019-01-26T02:30:23.826Z,5.87
2019-01-26T02:33:45.382Z,6.27
2019-01-26T02:36:15.546Z,6.33
2019-01-26T02:38:45.640Z,5.43
2019-01-26T02:41:22.778Z,5.60
2019-01-26T02:43:52.978Z,5.77
2019-01-26T02:46:33.015Z,5.53
2019-01-26T02:49:06.675Z,5.13
2019-01-26T02:51:36.442Z,4.97
2019-01-26T02:54:06.667Z,5.77
2019-01-26T02:56:36.344Z,4.70
2019-01-26T02:59:06.361Z,5.87
2019-01-26T03:01:36.024Z,5.03
2019-01-26T03:04:06.133Z,5.37
2019-01-26T03:06:36.178Z,4.70
2019-01-26T03:09:10.691Z,4.40
2019-01-26T03:11:41.586Z,5.10
2019-01-26T03:14:11.991Z,6.20
2019-01-26T03:16:42.107Z,5.40
2019-01-26T03:19:13.886Z,5.60
2019-01-26T03:21:43.422Z,4.60
2019-01-26T03:24:19.747Z,5.40
2019-01-26T03:26:49.817Z,5.47
2019-01-26T03:29:19.608Z,6.40
2019-01-26T03:31:49.606Z,5.37
2019-01-26T03:34:24.183Z,5.17
2019-01-26T03:36:54.456Z,4.40
2019-01-26T03:39:25.133Z,4.40
2019-01-26T03:41:55.849Z,5.73
2019-01-26T03:44:26.633Z,4.40
2019-01-26T03:47:01.026Z,4.57
2019-01-26T03:49:31.570Z,5.13
2019-01-26T03:52:02.358Z,5.43
2019-01-26T03:54:32.902Z,5.17
2019-01-26T03:57:05.586Z,5.10
2019-01-26T03:59:38.852Z,5.57
2019-01-26T04:02:13.122Z,5.87
2019-01-26T04:04:43.338Z,4.60
2019-01-26T04:07:13.403Z,4.70
2019-01-26T04:09:46.854Z,4.93
2019-01-26T04:12:21.780Z,4.73
2019-01-26T04:14:51.659Z,4.40
2019-01-26T04:17:22.302Z,4.40
2019-01-26T04:19:52.283Z,4.90
2019-01-26T04:22:23.056Z,4.30
2019-01-26T04:24:53.548Z,4.23
2019-01-26T04:27:24.268Z,4.37
2019-01-26T04:29:53.931Z,4.30
2019-01-26T04:32:23.955Z,4.03
2019-01-26T04:34:54.327Z,4.30
2019-01-26T04:37:26.258Z,4.10
2019-01-26T04:39:56.527Z,4.50
2019-01-26T04:42:26.859Z,5.77
2019-01-26T04:45:03.427Z,3.80
2019-01-26T04:47:33.746Z,4.03
2019-01-26T04:50:09.025Z,3.10
2019-01-26T04:52:41.081Z,2.90
2019-01-26T04:55:11.310Z,3.30
2019-01-26T04:57:41.611Z,2.50
2019-01-26T05:00:15.362Z,3.27
2019-01-26T05:02:46.882Z,2.80
2019-01-26T05:05:17.592Z,3.00
2019-01-26T05:07:48.191Z,3.00
2019-01-26T05:10:18.681Z,2.47
2019-01-26T05:12:50.427Z,2.20
2019-01-26T05:15:20.873Z,2.60
2019-01-26T05:17:50.874Z,2.73
2019-01-26T05:20:23.077Z,2.07
2019-01-26T05:22:56.104Z,2.83
2019-01-26T05:25:35.424Z,2.00
2019-01-26T05:28:05.972Z,2.30
2019-01-26T05:30:35.978Z,2.00
2019-01-26T05:33:06.458Z,1.80
2019-01-26T05:35:36.578Z,1.80
2019-01-26T05:38:10.106Z,1.73
2019-01-26T05:40:47.260Z,1.63
2019-01-26T05:43:17.224Z,1.73
2019-01-26T05:45:47.372Z,1.60
2019-01-26T05:48:17.826Z,2.30
2019-01-26T05:50:49.094Z,1.77
2019-01-26T05:53:19.674Z,1.50
2019-01-26T05:55:49.240Z,2.60
2019-01-26T05:58:19.583Z,2.10
2019-01-26T06:00:49.413Z,2.37
2019-01-26T06:03:19.031Z,3.10
2019-01-26T06:05:55.920Z,1.60
2019-01-26T06:08:22.330Z,3.47
2019-01-26T06:10:52.739Z,3.90
2019-01-26T06:13:30.017Z,2.87
2019-01-26T06:16:03.470Z,2.10
2019-01-26T06:18:33.800Z,7.70
2019-01-26T06:21:04.254Z,5.90
2019-01-26T06:23:34.740Z,3.63
2019-01-26T06:26:05.712Z,2.90
2019-01-26T06:28:53.489Z,1.40
2019-01-26T06:31:23.671Z,1.63
2019-01-26T06:33:57.424Z,1.50
2019-01-26T06:36:29.514Z,1.60
2019-01-26T06:54:17.597Z,2.20
2019-01-26T07:31:40.283Z,1.50
2019-01-26T07:34:27.163Z,1.67
2019-01-26T07:36:58.162Z,1.40
2019-01-26T10:10:53.101Z,3.43
2019-01-26T10:13:27.497Z,3.80
2019-01-26T10:15:58.233Z,3.67
2019-01-26T10:18:28.022Z,3.03
2019-01-26T10:20:58.326Z,3.40
2019-01-26T10:23:30.192Z,3.53
2019-01-26T10:26:00.012Z,3.47
2019-01-26T10:28:30.851Z,3.20
2019-01-26T10:31:01.679Z,3.00
2019-01-26T10:33:31.951Z,3.10
2019-01-26T10:36:21.766Z,3.40
2019-01-26T10:39:10.384Z,3.10
2019-01-26T10:42:01.711Z,3.17
2019-01-26T10:44:32.872Z,3.03
2019-01-26T10:47:02.910Z,3.03
2019-01-26T10:49:42.656Z,3.17
2019-01-26T10:52:12.723Z,3.03
2019-01-26T10:54:52.399Z,5.30
2019-01-26T10:57:22.453Z,4.00
2019-01-26T10:59:53.421Z,4.13
2019-01-26T11:02:24.941Z,3.77
2019-01-26T11:04:57.611Z,3.40
2019-01-26T11:07:28.572Z,3.80
2019-01-26T11:10:00.198Z,4.10
2019-01-26T11:12:30.708Z,4.10
2019-01-26T11:15:01.383Z,3.80
2019-01-26T11:17:31.969Z,4.57
2019-01-26T11:20:02.551Z,4.00
2019-01-26T11:22:33.427Z,5.30
2019-01-26T11:25:05.705Z,5.00
2019-01-26T11:27:35.889Z,3.60
2019-01-26T11:30:07.467Z,3.00
2019-01-26T11:32:38.325Z,4.20
2019-01-26T11:35:10.770Z,4.77
2019-01-26T11:37:42.897Z,5.17
2019-01-26T11:40:23.207Z,4.17
2019-01-26T11:42:54.038Z,3.63
2019-01-26T11:45:47.748Z,4.37
2019-01-26T11:48:22.434Z,4.20
2019-01-26T11:50:57.916Z,4.07
2019-01-26T11:53:29.604Z,5.80
2019-01-26T11:56:05.435Z,2.97
2019-01-26T11:58:38.089Z,2.90
2019-01-26T12:01:39.972Z,3.37
2019-01-26T12:04:23.806Z,3.10
2019-01-26T12:06:59.380Z,3.23
2019-01-26T12:09:31.425Z,2.70
2019-01-26T12:12:03.792Z,3.27
2019-01-26T12:14:36.006Z,3.47
2019-01-26T12:17:07.688Z,3.10
2019-01-26T12:19:39.731Z,3.33
2019-01-26T12:22:11.711Z,3.77
2019-01-26T12:24:43.657Z,3.10
2019-01-26T12:27:15.275Z,3.23
2019-01-26T12:29:46.387Z,3.43
2019-01-26T12:32:18.153Z,3.20
2019-01-26T12:34:54.151Z,3.33
2019-01-26T12:37:26.643Z,3.07
2019-01-26T12:39:59.602Z,3.03
2019-01-26T12:42:32.308Z,3.00
2019-01-26T12:45:04.831Z,3.30
2019-01-26T12:47:38.841Z,2.97
2019-01-26T12:50:13.598Z,2.80
2019-01-26T12:52:45.207Z,3.57
2019-01-26T12:55:18.625Z,3.03
2019-01-26T12:57:50.026Z,3.33
2019-01-26T13:00:22.062Z,3.60
2019-01-26T13:02:55.194Z,3.07
2019-01-26T13:05:27.690Z,2.70
2019-01-26T13:08:00.414Z,3.60
2019-01-26T13:10:38.505Z,3.80
2019-01-26T13:13:12.087Z,3.37
2019-01-26T13:15:46.061Z,2.97
2019-01-26T13:18:18.939Z,3.20
2019-01-26T13:20:52.121Z,3.60
2019-01-26T13:23:33.026Z,3.63
2019-01-26T13:26:09.615Z,3.70
2019-01-26T13:28:42.506Z,3.27
2019-01-26T13:31:23.126Z,4.53
2019-01-26T13:33:55.020Z,3.33
2019-01-26T13:36:28.000Z,3.70
2019-01-26T13:39:00.906Z,3.33
2019-01-26T13:41:33.745Z,3.33
2019-01-26T13:44:07.873Z,3.27
2019-01-26T13:46:40.750Z,3.67
2019-01-26T13:49:14.473Z,4.53
2019-01-26T13:51:46.862Z,3.30
2019-01-26T13:54:18.781Z,3.20
2019-01-26T13:56:49.874Z,4.40
2019-01-26T13:59:21.220Z,3.80
2019-01-26T14:01:53.226Z,5.10
2019-01-26T14:04:29.276Z,5.47
2019-01-26T14:07:00.985Z,4.37
2019-01-26T14:09:32.778Z,3.50
2019-01-26T14:12:03.766Z,4.90
2019-01-26T14:14:34.747Z,4.50
2019-01-26T14:17:06.206Z,5.10
2019-01-26T14:19:37.883Z,4.67
2019-01-26T14:22:09.658Z,4.70
2019-01-26T14:24:42.744Z,4.50
2019-01-26T14:27:23.013Z,4.63
2019-01-26T14:29:55.141Z,4.73
2019-01-26T14:32:28.053Z,5.23
2019-01-26T14:35:00.304Z,4.67
2019-01-26T14:37:38.162Z,4.87
2019-01-26T14:40:10.631Z,5.80
2019-01-26T14:42:43.076Z,4.63
2019-01-26T14:45:20.370Z,5.67
2019-01-26T14:47:51.918Z,7.87
2019-01-26T14:50:26.405Z,6.03
2019-01-26T14:53:02.216Z,7.50
2019-01-26T14:55:37.295Z,6.17
2019-01-26T14:58:13.278Z,14.07
2019-01-26T15:00:44.572Z,7.33
2019-01-26T15:03:20.111Z,10.67
2019-01-26T15:05:51.670Z,13.70
2019-01-26T15:08:23.322Z,5.73
2019-01-26T15:10:56.102Z,4.10
2019-01-26T15:13:30.342Z,4.90
2019-01-26T15:16:02.534Z,4.00
2019-01-26T15:18:34.589Z,5.07
2019-01-26T15:21:10.820Z,4.67
2019-01-26T15:23:42.630Z,4.53
2019-01-26T15:26:15.704Z,3.80
2019-01-26T15:28:47.634Z,3.97
2019-01-26T15:31:19.290Z,3.60
2019-01-26T15:33:51.485Z,4.33
2019-01-26T15:36:24.772Z,4.20
2019-01-26T15:38:59.315Z,5.33
2019-01-26T15:41:34.233Z,7.27
2019-01-26T15:44:05.925Z,4.23
2019-01-26T15:46:38.529Z,4.13
2019-01-26T15:49:10.800Z,3.70
2019-01-26T15:51:43.066Z,4.40
2019-01-26T15:54:20.790Z,4.07
2019-01-26T15:56:54.689Z,3.47
2019-01-26T15:59:26.536Z,3.80
2019-01-26T16:01:58.025Z,4.00
2019-01-26T16:04:31.757Z,4.37
2019-01-26T16:07:04.222Z,5.03
2019-01-26T16:09:36.677Z,5.93
2019-01-26T16:12:14.047Z,5.70
2019-01-26T16:14:51.799Z,3.70
2019-01-26T16:17:25.401Z,4.37
2019-01-26T16:19:58.418Z,3.30
2019-01-26T16:23:01.531Z,3.27
2019-01-26T16:25:35.086Z,2.90
2019-01-26T16:28:08.239Z,2.40
2019-01-26T16:30:39.572Z,4.10
2019-01-26T16:33:10.966Z,3.23
2019-01-26T16:35:43.762Z,5.33
2019-01-26T16:38:17.902Z,4.70
2019-01-26T16:40:52.204Z,3.57
2019-01-26T16:43:24.955Z,3.17
2019-01-26T16:45:57.465Z,2.90
2019-01-26T16:48:29.901Z,2.40
2019-01-26T16:51:02.976Z,2.60
2019-01-26T16:53:34.536Z,2.30
2019-01-26T16:56:07.223Z,2.33
2019-01-26T16:58:40.106Z,2.63
2019-01-26T17:01:12.015Z,2.07
2019-01-26T17:03:44.416Z,2.37
2019-01-26T17:06:19.635Z,2.30
2019-01-26T17:08:52.896Z,2.87
2019-01-26T17:11:24.715Z,2.40
2019-01-26T17:13:57.756Z,3.00
2019-01-26T17:16:30.628Z,2.10
2019-01-26T17:19:02.433Z,1.90
2019-01-26T17:21:36.975Z,2.37
2019-01-26T17:24:08.644Z,2.33
2019-01-26T17:27:12.673Z,2.50
2019-01-26T17:37:11.749Z,2.47
2019-01-26T17:40:11.541Z,2.40
2019-01-26T17:42:34.547Z,2.30
2019-01-26T17:45:57.241Z,2.07
2019-01-26T17:48:52.482Z,1.93
2019-01-26T17:51:29.264Z,2.13
2019-01-26T17:54:03.053Z,2.00
2019-01-26T17:56:43.796Z,2.90
2019-01-26T17:59:40.392Z,2.80
2019-01-26T18:02:55.460Z,2.40
2019-01-26T18:06:00.495Z,2.30
2019-01-26T18:08:47.191Z,2.70
2019-01-26T18:16:19.976Z,2.47
2019-01-26T18:23:22.544Z,6.53
2019-01-26T18:27:04.906Z,7.20
2019-01-26T18:41:09.179Z,9.87
2019-01-26T18:46:44.327Z,16.10
2019-01-26T18:46:50.383Z,16.63
2019-01-26T18:54:02.986Z,6.90
2019-01-26T18:56:38.659Z,5.00
2019-01-26T19:03:29.312Z,4.53
2019-01-26T19:06:06.664Z,4.20
2019-01-26T19:09:07.585Z,4.70
2019-01-26T19:11:48.104Z,4.93
2019-01-26T19:14:35.767Z,5.00
2019-01-26T19:17:09.578Z,5.80
2019-01-26T19:23:14.588Z,4.13
2019-01-26T19:27:03.053Z,4.37
2019-01-26T19:33:46.760Z,4.50
2019-01-26T19:36:52.626Z,4.20
2019-01-26T19:40:33.472Z,3.80
2019-01-26T19:43:33.166Z,4.83
2019-01-26T19:47:22.102Z,4.13
2019-01-26T19:50:32.582Z,7.30
2019-01-26T19:53:40.196Z,6.10
2019-01-26T19:56:27.731Z,6.77
2019-01-26T20:02:59.295Z,6.27
2019-01-26T20:05:51.097Z,6.30
2019-01-26T20:08:33.797Z,4.40
2019-01-26T20:11:16.608Z,5.50
2019-01-26T20:13:51.035Z,5.30
2019-01-26T20:16:46.695Z,7.47
2019-01-26T20:19:28.280Z,6.43
2019-01-26T20:22:16.543Z,7.63
2019-01-26T20:25:44.352Z,10.10
2019-01-26T20:28:59.870Z,8.70
2019-01-26T20:32:15.528Z,5.90
2019-01-26T20:34:40.609Z,4.20
2019-01-26T20:42:15.373Z,4.97
2019-01-26T20:43:59.974Z,4.60
2019-01-26T20:46:53.863Z,4.10
2019-01-26T20:49:28.668Z,4.05
2019-01-26T20:52:13.900Z,4.97
2019-01-26T20:55:02.674Z,4.40
2019-01-26T20:57:37.935Z,5.40
2019-01-26T21:00:39.084Z,4.83
2019-01-26T21:03:20.998Z,4.47
2019-01-26T21:06:01.692Z,3.57
2019-01-26T21:08:56.301Z,4.93
2019-01-26T21:15:04.888Z,4.17
2019-01-26T21:18:00.991Z,4.20
2019-01-26T21:20:37.990Z,4.50
2019-01-26T21:26:24.064Z,8.23
2019-01-26T21:28:59.205Z,18.73
2019-01-26T21:31:33.494Z,15.13
2019-01-26T21:34:10.757Z,12.33
2019-01-26T21:36:56.226Z,14.40
2019-01-26T21:39:35.856Z,8.57
2019-01-26T21:42:16.431Z,16.43
2019-01-26T21:45:20.199Z,12.20
2019-01-26T21:50:56.822Z,5.13
2019-01-26T21:53:56.094Z,4.13
2019-01-26T21:56:30.881Z,4.40
2019-01-26T21:59:07.631Z,3.20
2019-01-26T22:01:51.119Z,2.47
2019-01-26T22:04:27.420Z,4.27
2019-01-26T22:07:04.775Z,4.93
2019-01-26T22:09:37.373Z,3.77
2019-01-26T22:12:10.807Z,4.00
2019-01-26T22:14:45.968Z,4.20
2019-01-26T22:17:23.169Z,2.83
2019-01-26T22:19:55.637Z,3.37
2019-01-26T22:22:28.199Z,3.00
2019-01-26T22:25:04.038Z,3.17
2019-01-26T22:27:36.519Z,2.90
2019-01-26T22:30:13.797Z,2.70
2019-01-26T22:32:51.496Z,2.90
2019-01-26T22:35:30.430Z,3.70
2019-01-26T22:38:11.301Z,3.50
2019-01-26T22:40:43.954Z,3.23
2019-01-26T22:43:18.458Z,2.97
2019-01-26T22:45:50.146Z,3.83
2019-01-26T22:48:32.994Z,2.97
2019-01-26T22:51:06.725Z,3.87
2019-01-26T22:53:37.649Z,4.10
2019-01-26T22:56:12.258Z,3.33
2019-01-26T22:58:44.231Z,3.70
2019-01-26T23:01:34.170Z,4.10
2019-01-26T23:05:04.001Z,3.83
2019-01-26T23:08:01.091Z,5.37
2019-01-26T23:11:06.687Z,4.57
2019-01-26T23:13:45.189Z,3.70
2019-01-26T23:17:02.032Z,4.23
2019-01-26T23:20:12.006Z,2.80
2019-01-26T23:23:28.006Z,3.07
2019-01-26T23:26:20.946Z,3.03
2019-01-26T23:29:22.298Z,3.20
2019-01-26T23:31:54.699Z,4.00
2019-01-26T23:34:25.017Z,3.60
2019-01-26T23:36:57.151Z,2.90
2019-01-26T23:39:27.748Z,2.93
2019-01-26T23:41:58.973Z,3.80
2019-01-26T23:44:31.631Z,3.10
2019-01-26T23:47:04.601Z,2.47
2019-01-26T23:50:02.291Z,3.00
2019-01-26T23:52:32.594Z,2.73
2019-01-26T23:55:02.961Z,3.07
2019-01-26T23:57:32.675Z,2.83
